Time;durP1;ratioP1;P1;durP2;ratioP2;P2;SDS_P1;SDS_P2;PMS_P1;PMS_P2;Temp;Humidity;BMP_temperature;BMP_pressure;BME280_temperature;BME280_humidity;BME280_pressure;Samples;Min_cycle;Max_cycle;Signal;HPM_P1;HPM_P2
2021/08/04 00:01:56;;;;;;;0.70;0.70;;;;;;;12.27;62.78;100819.78;5030267;28;20599;-67
2021/08/04 00:04:25;;;;;;;1.10;0.70;;;;;;;12.08;63.26;100779.00;5030672;28;20202;-67
2021/08/04 00:06:53;;;;;;;0.73;0.73;;;;;;;12.28;63.35;100820.63;5030771;28;20222;-67
2021/08/04 00:09:21;;;;;;;3.63;0.70;;;;;;;12.28;63.95;100817.94;5031508;28;20200;-67
2021/08/04 00:11:50;;;;;;;0.70;0.70;;;;;;;12.24;63.90;100819.97;5030372;28;20223;-67
2021/08/04 00:14:18;;;;;;;0.80;0.80;;;;;;;12.30;63.81;100810.59;5031388;28;20226;-67
2021/08/04 00:16:47;;;;;;;0.83;0.83;;;;;;;12.28;63.67;100817.94;5027465;28;20749;-68
2021/08/04 00:19:17;;;;;;;0.80;0.80;;;;;;;12.30;63.61;100821.38;5029165;28;20201;-67
2021/08/04 00:21:45;;;;;;;3.00;0.70;;;;;;;12.24;63.74;100813.72;5026017;28;20204;-68
2021/08/04 00:24:14;;;;;;;1.87;1.07;;;;;;;12.37;63.18;100819.94;5030421;28;20201;-68
2021/08/04 00:26:42;;;;;;;0.60;0.60;;;;;;;12.37;63.82;100817.25;5029642;28;20215;-67
2021/08/04 00:29:10;;;;;;;2.20;0.60;;;;;;;12.20;63.86;100788.88;5030300;28;20237;-68
2021/08/04 00:31:38;;;;;;;1.10;0.80;;;;;;;12.37;63.09;100818.13;5032953;28;20200;-68
2021/08/04 00:34:09;;;;;;;1.07;0.90;;;;;;;12.36;63.50;100815.53;5026459;28;20202;-68
2021/08/04 00:36:39;;;;;;;0.90;0.90;;;;;;;12.44;62.81;100826.59;5031032;28;20208;-68
2021/08/04 00:39:07;;;;;;;1.67;1.20;;;;;;;12.44;63.40;100823.91;5030268;28;20233;-67
2021/08/04 00:41:41;;;;;;;1.60;1.20;;;;;;;12.44;63.44;100824.75;5031027;28;20575;-67
2021/08/04 00:44:12;;;;;;;7.27;1.07;;;;;;;12.41;63.42;100824.97;5031076;28;20198;-67
2021/08/04 00:46:42;;;;;;;1.50;1.07;;;;;;;12.42;64.27;100832.09;5045364;28;20233;-68
2021/08/04 00:49:12;;;;;;;1.63;1.10;;;;;;;12.32;64.10;100811.34;5031241;28;20255;-67
2021/08/04 00:51:42;;;;;;;3.37;1.20;;;;;;;12.43;64.19;100833.81;5029709;28;20234;-67
2021/08/04 00:54:10;;;;;;;1.07;0.90;;;;;;;12.42;64.94;100829.41;5032063;28;20565;-67
2021/08/04 00:56:39;;;;;;;5.47;1.00;;;;;;;12.42;64.38;100826.72;5031451;28;20200;-66
2021/08/04 00:59:09;;;;;;;1.27;1.10;;;;;;;12.38;64.19;100816.28;5029644;28;20228;-67
2021/08/04 01:01:46;;;;;;;1.20;0.80;;;;;;;12.47;64.25;100829.06;5021371;28;20227;-66
2021/08/04 01:04:22;;;;;;;1.20;0.70;;;;;;;12.50;64.04;100830.66;5028798;28;20302;-67
2021/08/04 01:07:04;;;;;;;1.17;1.07;;;;;;;12.44;63.36;100818.50;5026999;28;20316;-67
2021/08/04 01:09:41;;;;;;;1.93;1.20;;;;;;;12.53;63.89;100833.97;5029538;28;20291;-66
2021/08/04 01:12:13;;;;;;;1.47;0.80;;;;;;;12.53;63.61;100844.75;5044206;28;20203;-66
2021/08/04 01:14:44;;;;;;;1.30;1.00;;;;;;;12.55;63.67;100837.44;5025786;28;20227;-67
2021/08/04 01:17:12;;;;;;;1.90;1.00;;;;;;;12.55;64.02;100837.44;5030041;28;20205;-67
2021/08/04 01:19:54;;;;;;;1.10;1.00;;;;;;;12.54;64.42;100830.31;5026513;28;20684;-67
2021/08/04 01:22:35;;;;;;;1.03;0.90;;;;;;;12.38;63.86;100805.50;5027094;28;20874;-67
2021/08/04 01:25:11;;;;;;;0.80;0.80;;;;;;;12.53;63.83;100833.97;5022216;28;20209;-67
2021/08/04 01:27:43;;;;;;;1.47;0.87;;;;;;;12.53;63.76;100836.66;5019139;28;20218;-67
2021/08/04 01:30:12;;;;;;;0.97;0.87;;;;;;;12.53;63.62;100827.72;5029333;28;20551;-68
2021/08/04 01:32:41;;;;;;;0.83;0.80;;;;;;;12.55;64.27;100826.66;5016881;28;20216;-68
2021/08/04 01:35:11;;;;;;;0.80;0.80;;;;;;;12.52;63.98;100836.78;5027404;28;20198;-68
2021/08/04 01:37:42;;;;;;;1.10;0.90;;;;;;;12.56;63.43;100839.16;5025078;28;20554;-68
2021/08/04 01:40:12;;;;;;;0.87;0.87;;;;;;;12.59;63.76;100833.53;5030604;28;20243;-67
2021/08/04 01:42:42;;;;;;;1.80;0.80;;;;;;;12.60;63.57;100835.25;5016345;28;20210;-67
2021/08/04 01:45:11;;;;;;;0.80;0.80;;;;;;;12.61;63.73;100839.69;5046655;28;20321;-68
2021/08/04 01:47:43;;;;;;;0.83;0.77;;;;;;;12.58;64.12;100833.66;5031578;28;20776;-67
2021/08/04 01:50:14;;;;;;;1.70;0.97;;;;;;;12.54;64.51;100834.84;5046485;28;20259;-67
2021/08/04 01:52:43;;;;;;;1.80;0.87;;;;;;;12.50;64.09;100834.22;5030216;28;20705;-67
2021/08/04 01:55:13;;;;;;;1.00;0.90;;;;;;;12.48;64.59;100838.84;5030052;28;20598;-67
2021/08/04 01:57:42;;;;;;;0.70;0.70;;;;;;;12.47;63.96;100834.44;5031138;28;20297;-68
2021/08/04 02:00:13;;;;;;;2.70;0.90;;;;;;;12.48;63.76;100836.16;5031045;28;20228;-68
2021/08/04 02:02:41;;;;;;;1.10;1.00;;;;;;;12.51;63.54;100835.06;5031864;28;20230;-67
2021/08/04 02:05:11;;;;;;;0.70;0.70;;;;;;;12.49;63.49;100837.88;5045533;28;20687;-68
2021/08/04 02:07:51;;;;;;;2.77;0.80;;;;;;;12.50;63.56;100834.22;5045562;28;20715;-68
2021/08/04 02:10:24;;;;;;;1.17;0.70;;;;;;;12.49;63.67;100835.19;5028942;28;20205;-68
2021/08/04 02:12:59;;;;;;;0.80;0.80;;;;;;;12.19;63.94;100784.44;5028817;28;20203;-67
2021/08/04 02:15:33;;;;;;;0.63;0.63;;;;;;;12.45;63.93;100836.38;5012405;28;20198;-67
2021/08/04 02:18:07;;;;;;;0.97;0.80;;;;;;;12.42;64.56;100829.41;5024083;28;20199;-68
2021/08/04 02:20:39;;;;;;;1.30;0.90;;;;;;;12.36;64.00;100820.91;5029641;28;20217;-67
2021/08/04 02:23:11;;;;;;;3.33;0.90;;;;;;;12.34;64.95;100826.41;5043043;28;20266;-68
2021/08/04 02:25:45;;;;;;;0.80;0.80;;;;;;;12.31;64.69;100828.47;5015554;28;20235;-67
2021/08/04 02:28:20;;;;;;;0.80;0.80;;;;;;;11.05;64.66;100612.59;5044901;28;20220;-67
2021/08/04 02:30:51;;;;;;;0.90;0.90;;;;;;;12.27;64.29;100832.38;5041918;28;20586;-68
2021/08/04 02:33:21;;;;;;;0.90;0.90;;;;;;;12.24;64.62;100830.75;5039215;28;20204;-67
2021/08/04 02:35:50;;;;;;;0.90;0.90;;;;;;;12.16;64.81;100824.22;5013534;28;20218;-67
2021/08/04 02:38:18;;;;;;;3.30;0.87;;;;;;;12.13;64.44;100825.28;5030366;28;20188;-67
2021/08/04 02:40:47;;;;;;;0.63;0.63;;;;;;;12.11;64.85;100836.19;5022759;28;20292;-67
2021/08/04 02:43:19;;;;;;;3.97;1.10;;;;;;;12.09;64.40;100830.03;5024762;28;20201;-69
2021/08/04 02:45:48;;;;;;;1.00;0.90;;;;;;;12.07;64.64;100831.13;5021443;28;20673;-68
2021/08/04 02:48:18;;;;;;;5.13;0.80;;;;;;;12.03;64.46;100835.88;5029595;28;20224;-68
2021/08/04 02:50:48;;;;;;;0.93;0.87;;;;;;;11.99;65.31;100829.00;5028598;28;20203;-68
2021/08/04 02:53:18;;;;;;;1.90;1.10;;;;;;;11.97;65.10;100841.72;5016630;28;20231;-68
2021/08/04 02:55:50;;;;;;;1.03;0.93;;;;;;;11.92;65.18;100830.38;5028662;28;20208;-68
2021/08/04 02:58:19;;;;;;;0.70;0.70;;;;;;;11.91;64.85;100834.06;5028243;28;20195;-68
2021/08/04 03:00:48;;;;;;;0.73;0.73;;;;;;;11.93;64.85;100840.19;5029828;28;20195;-69
2021/08/04 03:03:17;;;;;;;0.77;0.77;;;;;;;11.79;64.67;100813.41;5031654;28;20225;-68
2021/08/04 03:05:45;;;;;;;1.17;0.90;;;;;;;11.92;64.89;100833.09;5034202;28;20207;-68
2021/08/04 03:08:14;;;;;;;0.70;0.70;;;;;;;11.95;64.83;100834.72;5031840;28;20242;-68
2021/08/04 03:10:42;;;;;;;0.80;0.80;;;;;;;11.88;64.37;100825.34;5033504;28;20205;-68
2021/08/04 03:13:10;;;;;;;0.70;0.70;;;;;;;11.93;64.32;100840.19;5031922;28;20207;-68
2021/08/04 03:15:39;;;;;;;0.80;0.80;;;;;;;11.90;64.41;100835.03;5026057;28;20202;-68
2021/08/04 03:18:07;;;;;;;0.70;0.70;;;;;;;11.83;65.36;100833.75;5039621;28;20199;-69
2021/08/04 03:20:35;;;;;;;0.87;0.87;;;;;;;11.85;64.72;100842.56;5033333;28;20215;-68
2021/08/04 03:23:04;;;;;;;2.20;0.87;;;;;;;11.69;65.34;100817.72;5033344;28;20197;-68
2021/08/04 03:25:32;;;;;;;0.77;0.77;;;;;;;11.63;65.23;100804.69;5032982;28;20213;-68
2021/08/04 03:28:00;;;;;;;0.80;0.80;;;;;;;11.74;65.94;100835.25;5032934;28;20242;-68
2021/08/04 03:30:28;;;;;;;0.80;0.80;;;;;;;11.73;65.18;100832.66;5031444;28;20236;-68
2021/08/04 03:32:58;;;;;;;0.80;0.77;;;;;;;11.89;65.65;100843.22;5033038;28;20571;-68
2021/08/04 03:35:26;;;;;;;0.83;0.80;;;;;;;12.03;65.14;100840.41;5032720;28;20214;-69
2021/08/04 03:37:54;;;;;;;0.80;0.80;;;;;;;12.17;65.58;100842.94;5032938;28;20553;-68
2021/08/04 03:40:22;;;;;;;1.00;0.93;;;;;;;12.27;65.90;100846.69;5032856;28;20206;-69
2021/08/04 03:42:50;;;;;;;0.70;0.70;;;;;;;12.32;65.82;100851.75;5025625;28;20210;-68
2021/08/04 03:45:18;;;;;;;1.03;0.93;;;;;;;12.33;66.33;100848.94;5042329;28;20675;-68
2021/08/04 03:47:46;;;;;;;1.90;0.90;;;;;;;12.33;66.01;100845.38;5031512;28;20231;-67
2021/08/04 03:50:16;;;;;;;0.93;0.93;;;;;;;12.41;65.89;100851.91;5020742;28;20210;-68
2021/08/04 03:52:44;;;;;;;3.37;1.00;;;;;;;12.47;66.57;100856.00;5046334;28;20201;-68
2021/08/04 03:55:13;;;;;;;1.27;0.80;;;;;;;12.55;66.59;100852.72;5032647;28;20585;-68
2021/08/04 03:57:42;;;;;;;0.97;0.80;;;;;;;12.44;65.88;100821.19;5033004;28;20196;-68
2021/08/04 04:00:11;;;;;;;1.10;0.97;;;;;;;12.65;65.97;100860.03;5032288;28;20208;-68
2021/08/04 04:02:40;;;;;;;1.00;0.90;;;;;;;12.54;66.64;100849.16;5032634;28;20202;-69
2021/08/04 04:05:10;;;;;;;4.23;1.00;;;;;;;12.19;68.07;100800.59;5032334;28;20209;-68
2021/08/04 04:07:40;;;;;;;0.83;0.83;;;;;;;12.51;68.39;100862.88;5047729;28;20661;-68
2021/08/04 04:10:10;;;;;;;0.93;0.90;;;;;;;12.48;68.76;100862.25;5032252;28;20338;-68
2021/08/04 04:12:38;;;;;;;0.80;0.80;;;;;;;12.34;67.94;100836.34;5032576;28;20689;-68
2021/08/04 04:15:07;;;;;;;0.80;0.80;;;;;;;12.57;67.95;100862.44;5031901;28;20198;-69
2021/08/04 04:17:36;;;;;;;1.17;1.07;;;;;;;12.62;68.14;100868.34;5032577;28;20208;-67
2021/08/04 04:20:05;;;;;;;0.90;0.90;;;;;;;12.56;68.48;100854.47;5032318;28;20201;-68
2021/08/04 04:22:33;;;;;;;0.80;0.80;;;;;;;12.61;69.35;100866.63;5032206;28;20680;-69
2021/08/04 04:25:03;;;;;;;0.90;0.90;;;;;;;12.68;69.51;100865.19;5032123;28;20204;-67
2021/08/04 04:27:31;;;;;;;0.90;0.90;;;;;;;12.75;69.71;100873.66;5032127;28;20662;-70
2021/08/04 04:29:59;;;;;;;0.77;0.73;;;;;;;12.79;69.67;100868.91;5031458;28;20236;-68
2021/08/04 04:32:27;;;;;;;1.27;0.90;;;;;;;12.85;69.81;100871.13;5032079;28;20196;-67
2021/08/04 04:34:55;;;;;;;1.20;1.10;;;;;;;12.67;69.36;100844.59;5030649;28;20620;-68
2021/08/04 04:37:24;;;;;;;1.63;1.00;;;;;;;12.93;70.04;100879.53;5031995;28;20204;-69
2021/08/04 04:39:52;;;;;;;2.90;1.00;;;;;;;12.97;69.87;100881.00;5030444;28;20196;-68
2021/08/04 04:42:21;;;;;;;1.30;1.20;;;;;;;13.03;70.49;100883.22;5031783;28;20666;-68
2021/08/04 04:44:49;;;;;;;0.87;0.87;;;;;;;13.06;70.79;100885.69;5019153;28;20570;-67
2021/08/04 04:47:17;;;;;;;1.90;1.00;;;;;;;13.07;70.96;100876.63;5030833;28;20547;-67
2021/08/04 04:49:46;;;;;;;0.90;0.90;;;;;;;13.21;71.36;100887.28;5031776;28;20230;-67
2021/08/04 04:52:14;;;;;;;1.27;1.07;;;;;;;13.28;71.61;100885.81;5031626;28;20283;-68
2021/08/04 04:54:42;;;;;;;1.43;1.30;;;;;;;13.36;71.67;100886.06;5017963;28;20206;-68
2021/08/04 04:57:10;;;;;;;1.60;1.10;;;;;;;13.51;71.17;100889.44;5031700;28;20752;-67
2021/08/04 04:59:39;;;;;;;1.40;1.30;;;;;;;13.62;71.10;100896.69;5031242;28;20662;-68
2021/08/04 05:02:07;;;;;;;1.33;1.17;;;;;;;13.72;71.07;100894.13;5031288;28;20735;-68
2021/08/04 05:04:35;;;;;;;5.60;1.00;;;;;;;13.84;71.46;100894.03;5031314;28;20214;-68
2021/08/04 05:07:04;;;;;;;1.10;1.00;;;;;;;13.89;72.28;100891.81;5031416;28;20220;-68
2021/08/04 05:09:32;;;;;;;0.90;0.90;;;;;;;14.05;71.97;100896.84;5031141;28;20592;-68
2021/08/04 05:12:00;;;;;;;3.37;0.97;;;;;;;14.23;71.62;100895.38;5031248;28;20556;-68
2021/08/04 05:14:28;;;;;;;0.90;0.90;;;;;;;14.42;71.70;100905.56;5031354;28;20199;-68
2021/08/04 05:16:58;;;;;;;0.90;0.90;;;;;;;14.65;71.74;100905.53;5031401;28;20583;-68
2021/08/04 05:19:26;;;;;;;1.87;1.10;;;;;;;14.83;71.83;100902.19;5031614;28;20206;-68
2021/08/04 05:21:54;;;;;;;1.77;1.30;;;;;;;15.06;71.48;100900.28;5030916;28;20213;-68
2021/08/04 05:24:22;;;;;;;1.33;1.20;;;;;;;15.31;70.96;100900.91;5030867;28;20233;-68
2021/08/04 05:26:50;;;;;;;1.17;1.10;;;;;;;15.51;71.05;100900.03;5024094;28;20201;-68
2021/08/04 05:29:18;;;;;;;1.43;0.80;;;;;;;15.80;71.50;100909.25;5029807;28;20230;-67
2021/08/04 05:31:46;;;;;;;3.50;1.23;;;;;;;16.06;70.36;100903.41;5029971;28;20195;-67
2021/08/04 05:34:16;;;;;;;0.73;0.73;;;;;;;16.24;69.74;100896.38;5030396;28;20249;-68
2021/08/04 05:36:45;;;;;;;1.00;0.90;;;;;;;16.54;68.80;100895.47;5030012;28;20206;-68
2021/08/04 05:39:13;;;;;;;0.93;0.93;;;;;;;16.84;68.54;100910.00;5028408;28;20198;-68
2021/08/04 05:41:42;;;;;;;1.10;1.00;;;;;;;17.11;67.71;100912.00;5030425;28;20202;-67
2021/08/04 05:44:11;;;;;;;1.10;1.00;;;;;;;17.19;66.27;100882.31;5029294;28;20294;-67
2021/08/04 05:46:39;;;;;;;1.00;1.00;;;;;;;17.62;65.21;100909.84;5017209;28;20710;-67
2021/08/04 05:49:07;;;;;;;0.90;0.90;;;;;;;17.86;63.68;100913.97;5026272;28;20261;-68
2021/08/04 05:51:36;;;;;;;1.10;1.10;;;;;;;18.12;63.11;100906.91;5018799;28;20702;-67
2021/08/04 05:54:04;;;;;;;0.90;0.90;;;;;;;18.43;61.88;100912.06;5029952;28;20215;-67
2021/08/04 05:56:32;;;;;;;2.00;0.90;;;;;;;18.72;60.84;100910.06;5030266;28;20546;-67
2021/08/04 05:59:01;;;;;;;0.90;0.90;;;;;;;19.02;60.29;100911.59;5030233;28;20273;-67
2021/08/04 06:01:29;;;;;;;0.80;0.80;;;;;;;19.33;60.29;100908.47;5029223;28;20220;-67
2021/08/04 06:03:57;;;;;;;1.50;0.93;;;;;;;19.53;58.22;100905.44;5029779;28;20202;-67
2021/08/04 06:06:25;;;;;;;0.60;0.60;;;;;;;19.86;58.10;100911.13;5023691;28;20205;-67
2021/08/04 06:08:55;;;;;;;0.90;0.90;;;;;;;19.95;56.90;100899.28;5023601;28;20206;-66
2021/08/04 06:11:23;;;;;;;0.73;0.73;;;;;;;20.32;56.98;100911.75;5023339;28;20214;-65
2021/08/04 06:13:51;;;;;;;0.83;0.83;;;;;;;20.64;57.01;100922.84;5042860;28;20266;-66
2021/08/04 06:16:19;;;;;;;1.43;0.90;;;;;;;20.97;56.20;100914.75;5029812;28;20240;-66
2021/08/04 06:18:47;;;;;;;0.80;0.80;;;;;;;21.27;55.56;100919.63;5029950;28;20281;-67
2021/08/04 06:21:15;;;;;;;0.60;0.60;;;;;;;21.58;54.35;100921.69;5029678;28;20206;-67
2021/08/04 06:23:47;;;;;;;0.80;0.80;;;;;;;21.74;53.60;100927.16;5029830;28;20202;-67
2021/08/04 06:26:17;;;;;;;0.70;0.70;;;;;;;22.08;53.38;100926.97;5029762;28;20576;-67
2021/08/04 06:28:45;;;;;;;0.90;0.90;;;;;;;22.40;53.36;100928.78;5028924;28;20242;-67
2021/08/04 06:31:13;;;;;;;0.90;0.90;;;;;;;22.55;51.47;100932.47;5026723;28;20210;-67
2021/08/04 06:33:41;;;;;;;1.53;0.80;;;;;;;22.60;51.31;100924.56;5024094;28;20203;-67
2021/08/04 06:36:09;;;;;;;1.17;0.90;;;;;;;22.85;50.70;100933.56;5022631;28;20198;-67
2021/08/04 06:38:38;;;;;;;1.57;1.00;;;;;;;23.04;51.60;100935.00;5017718;28;20199;-67
2021/08/04 06:41:06;;;;;;;1.53;0.83;;;;;;;23.08;52.65;100933.59;5017203;28;20199;-67
2021/08/04 06:43:36;;;;;;;0.90;0.90;;;;;;;23.19;51.41;100933.19;5019878;28;20207;-67
2021/08/04 06:46:09;;;;;;;0.90;0.90;;;;;;;23.18;50.22;100945.19;5023815;28;20190;-67
2021/08/04 06:48:42;;;;;;;0.80;0.80;;;;;;;23.16;51.21;100946.41;5016557;28;20235;-67
2021/08/04 06:51:11;;;;;;;3.13;1.00;;;;;;;23.18;52.15;100916.94;5013370;28;20226;-67
2021/08/04 06:53:39;;;;;;;0.80;0.80;;;;;;;23.68;51.54;100946.56;5028874;28;20264;-67
2021/08/04 06:56:07;;;;;;;0.73;0.73;;;;;;;23.52;49.84;100944.75;5028137;28;20706;-67
2021/08/04 06:58:38;;;;;;;1.37;0.90;;;;;;;23.67;49.03;100944.00;5028500;28;20424;-67
2021/08/04 07:01:06;;;;;;;1.77;1.10;;;;;;;23.72;48.53;100942.41;5028080;28;20693;-67
2021/08/04 07:03:38;;;;;;;1.03;1.00;;;;;;;23.74;49.67;100937.59;5028044;28;20637;-67
2021/08/04 07:06:08;;;;;;;1.10;1.00;;;;;;;23.95;48.33;100936.06;5027678;28;20625;-67
2021/08/04 07:08:37;;;;;;;0.80;0.80;;;;;;;24.08;46.43;100941.72;5028199;28;20203;-68
2021/08/04 07:11:06;;;;;;;0.90;0.90;;;;;;;24.24;46.23;100943.47;5028628;28;20229;-67
2021/08/04 07:13:34;;;;;;;0.87;0.87;;;;;;;24.28;45.26;100937.44;5029344;28;20198;-67
2021/08/04 07:16:04;;;;;;;0.80;0.80;;;;;;;24.32;44.79;100952.50;5029641;28;20223;-67
2021/08/04 07:18:33;;;;;;;0.80;0.80;;;;;;;24.34;44.04;100950.41;5016093;28;20207;-68
2021/08/04 07:21:01;;;;;;;0.80;0.80;;;;;;;24.35;43.94;100949.38;5029325;28;20206;-67
2021/08/04 07:23:29;;;;;;;0.80;0.80;;;;;;;24.26;44.90;100912.03;5029080;28;20205;-67
2021/08/04 07:25:57;;;;;;;0.90;0.80;;;;;;;24.38;43.97;100932.50;5029325;28;20206;-67
2021/08/04 07:28:25;;;;;;;0.90;0.90;;;;;;;24.42;43.89;100960.44;5015470;28;20281;-68
2021/08/04 07:30:53;;;;;;;0.70;0.70;;;;;;;24.63;44.25;100945.97;5028988;28;20744;-68
2021/08/04 07:33:23;;;;;;;1.03;1.03;;;;;;;24.97;43.17;100943.44;5029093;28;20209;-67
2021/08/04 07:35:51;;;;;;;0.83;0.70;;;;;;;25.35;43.47;100949.59;5029640;28;20229;-67
2021/08/04 07:38:19;;;;;;;0.80;0.80;;;;;;;25.29;42.64;100947.66;5028744;28;20210;-67
2021/08/04 07:40:47;;;;;;;0.73;0.73;;;;;;;25.29;40.96;100946.78;5029319;28;20195;-67
2021/08/04 07:43:15;;;;;;;0.90;0.80;;;;;;;25.53;40.71;100951.91;5028919;28;20582;-68
2021/08/04 07:45:44;;;;;;;0.80;0.80;;;;;;;25.82;40.07;100944.59;5015560;28;20696;-68
2021/08/04 07:48:12;;;;;;;0.77;0.77;;;;;;;25.53;41.24;100954.66;5027744;28;20516;-67
2021/08/04 07:50:41;;;;;;;0.70;0.70;;;;;;;25.74;39.20;100951.09;5032423;28;20226;-68
2021/08/04 07:53:09;;;;;;;0.80;0.80;;;;;;;25.78;38.82;100954.31;5032536;28;20203;-68
2021/08/04 07:55:40;;;;;;;0.60;0.60;;;;;;;25.73;37.76;100954.91;5032740;28;20260;-68
2021/08/04 07:58:08;;;;;;;0.55;0.55;;;;;;;26.36;38.87;100966.03;5032393;28;20205;-68
2021/08/04 08:00:36;;;;;;;0.70;0.70;;;;;;;26.55;37.23;100960.63;5032772;28;20198;-68
2021/08/04 08:03:05;;;;;;;0.60;0.60;;;;;;;26.36;35.43;100953.09;5032523;28;20245;-67
2021/08/04 08:05:33;;;;;;;0.50;0.50;;;;;;;26.65;35.62;100954.75;5032761;28;20202;-67
2021/08/04 08:08:04;;;;;;;0.70;0.70;;;;;;;27.15;37.54;100960.91;5032254;28;20200;-67
2021/08/04 08:10:35;;;;;;;0.50;0.50;;;;;;;26.98;34.02;100960.41;5032381;28;20683;-67
2021/08/04 08:13:04;;;;;;;0.68;0.68;;;;;;;26.68;34.53;100954.34;5032272;28;20198;-67
2021/08/04 08:15:33;;;;;;;3.90;0.80;;;;;;;26.92;35.64;100956.56;5032249;28;20214;-67
2021/08/04 08:18:07;;;;;;;0.60;0.60;;;;;;;27.14;33.67;100948.19;5030795;28;20207;-68
2021/08/04 08:20:36;;;;;;;0.50;0.50;;;;;;;27.12;34.07;100953.06;5032783;28;20552;-67
2021/08/04 08:23:06;;;;;;;0.57;0.57;;;;;;;27.09;33.60;100950.72;5031861;28;20575;-67
2021/08/04 08:25:34;;;;;;;0.60;0.60;;;;;;;27.36;34.12;100946.13;5032085;28;20198;-67
2021/08/04 08:28:03;;;;;;;0.68;0.68;;;;;;;27.33;34.00;100952.91;5031859;28;20277;-66
2021/08/04 08:30:31;;;;;;;0.80;0.80;;;;;;;27.69;34.97;100943.44;5024844;28;20696;-68
2021/08/04 08:32:59;;;;;;;0.77;0.77;;;;;;;27.91;33.12;100933.91;5025336;28;20207;-68
2021/08/04 08:35:30;;;;;;;2.25;0.80;;;;;;;28.14;33.88;100941.72;5031789;28;20205;-67
2021/08/04 08:37:58;;;;;;;0.80;0.60;;;;;;;28.28;33.35;100942.59;5031775;28;20218;-68
2021/08/04 08:40:28;;;;;;;0.77;0.63;;;;;;;27.92;32.24;100949.41;5031849;28;20198;-68
2021/08/04 08:42:56;;;;;;;0.80;0.80;;;;;;;26.97;33.09;100953.19;5031948;28;20195;-68
2021/08/04 08:45:24;;;;;;;0.50;0.50;;;;;;;26.28;33.67;100948.53;5017985;28;20199;-68
2021/08/04 08:47:52;;;;;;;0.80;0.80;;;;;;;25.84;33.76;100945.25;5032129;28;20545;-68
2021/08/04 08:50:25;;;;;;;0.60;0.60;;;;;;;25.80;32.64;100939.28;5018878;28;20220;-68
2021/08/04 08:52:55;;;;;;;0.50;0.50;;;;;;;26.02;32.00;100936.47;5031076;28;20282;-68
2021/08/04 08:55:24;;;;;;;0.70;0.70;;;;;;;26.46;31.95;100952.72;5031627;28;20663;-68
2021/08/04 08:57:53;;;;;;;0.45;0.45;;;;;;;26.55;32.24;100937.72;5017606;28;20227;-67
2021/08/04 09:00:22;;;;;;;0.60;0.60;;;;;;;26.78;32.04;100943.78;5030156;28;20206;-67
2021/08/04 09:02:50;;;;;;;0.70;0.70;;;;;;;27.08;32.53;100947.13;5031156;28;20206;-67
2021/08/04 09:05:18;;;;;;;0.60;0.60;;;;;;;27.43;32.05;100935.94;5031202;28;20203;-68
2021/08/04 09:07:48;;;;;;;0.52;0.52;;;;;;;27.75;32.54;100921.38;5031271;28;20213;-67
2021/08/04 09:10:26;;;;;;;2.28;0.55;;;;;;;28.34;31.72;100931.53;5031120;28;20203;-68
2021/08/04 09:12:59;;;;;;;0.60;0.60;;;;;;;28.68;29.96;100935.06;5031151;28;20285;-68
2021/08/04 09:15:31;;;;;;;0.70;0.70;;;;;;;29.14;30.33;100940.44;5031188;28;20432;-68
2021/08/04 09:18:04;;;;;;;3.35;0.70;;;;;;;28.70;28.42;100936.53;5030999;28;20633;-68
2021/08/04 09:20:42;;;;;;;0.60;0.60;;;;;;;28.78;26.69;100929.94;5031634;28;20194;-68
2021/08/04 09:23:14;;;;;;;0.60;0.60;;;;;;;28.82;29.46;100941.41;5030988;28;20203;-68
2021/08/04 09:26:00;;;;;;;0.70;0.70;;;;;;;28.77;30.02;100939.25;5031168;28;20198;-68
2021/08/04 09:28:31;;;;;;;0.65;0.65;;;;;;;28.38;29.89;100943.00;5031030;28;20303;-68
2021/08/04 09:31:03;;;;;;;0.50;0.50;;;;;;;28.47;29.91;100941.72;5045968;28;20738;-67
2021/08/04 09:33:36;;;;;;;0.60;0.60;;;;;;;27.87;30.19;100932.63;5030705;28;20207;-68
2021/08/04 09:36:04;;;;;;;0.60;0.60;;;;;;;28.29;29.58;100942.41;5030673;28;20202;-67
2021/08/04 09:38:33;;;;;;;0.73;0.73;;;;;;;28.30;29.56;100943.25;5030625;28;20206;-67
2021/08/04 09:41:19;;;;;;;0.68;0.68;;;;;;;28.08;29.71;100940.69;5030567;28;20194;-67
2021/08/04 09:44:02;;;;;;;0.80;0.80;;;;;;;28.40;30.69;100938.97;5030432;28;20203;-67
2021/08/04 09:46:31;;;;;;;0.80;0.80;;;;;;;28.70;29.74;100938.44;5030435;28;20206;-68
2021/08/04 09:49:10;;;;;;;0.55;0.55;;;;;;;28.60;28.29;100933.38;5030109;28;20226;-67
2021/08/04 09:51:38;;;;;;;0.65;0.65;;;;;;;28.67;28.32;100936.97;5030616;28;20594;-68
2021/08/04 09:54:08;;;;;;;1.10;0.50;;;;;;;28.57;25.57;100942.13;5030403;28;20215;-68
2021/08/04 09:56:48;;;;;;;0.70;0.70;;;;;;;28.62;26.82;100938.69;5030534;28;20823;-68
2021/08/04 09:59:17;;;;;;;0.52;0.52;;;;;;;28.79;27.87;100945.47;5028507;28;20202;-70
2021/08/04 10:01:46;;;;;;;0.60;0.60;;;;;;;28.79;27.99;100939.06;5027261;28;20202;-68
2021/08/04 10:04:15;;;;;;;0.47;0.47;;;;;;;29.44;29.23;100937.94;5026785;28;20205;-68
2021/08/04 10:06:44;;;;;;;0.50;0.50;;;;;;;29.42;27.15;100933.66;5024269;28;20198;-68
2021/08/04 10:09:13;;;;;;;0.50;0.50;;;;;;;28.87;26.86;100941.63;5028358;28;20292;-68
2021/08/04 10:11:44;;;;;;;0.50;0.50;;;;;;;28.89;27.33;100931.19;5025352;28;20832;-67
2021/08/04 10:14:15;;;;;;;0.60;0.60;;;;;;;28.54;27.35;100927.88;5027293;28;20667;-67
2021/08/04 10:16:47;;;;;;;0.45;0.45;;;;;;;28.20;28.34;100901.38;5025798;28;20683;-67
2021/08/04 10:19:16;;;;;;;0.50;0.50;;;;;;;28.44;26.69;100942.13;5027045;28;20206;-67
2021/08/04 10:21:48;;;;;;;0.63;0.60;;;;;;;28.39;26.91;100936.41;5023738;28;20203;-67
2021/08/04 10:24:17;;;;;;;0.55;0.55;;;;;;;28.30;27.00;100944.09;5023923;28;20683;-67
2021/08/04 10:26:46;;;;;;;0.40;0.40;;;;;;;28.74;25.75;100942.47;5026578;28;20198;-67
2021/08/04 10:29:14;;;;;;;0.55;0.55;;;;;;;28.45;24.39;100941.91;5025556;28;20237;-67
2021/08/04 10:31:42;;;;;;;0.43;0.43;;;;;;;28.76;25.92;100937.56;5024846;28;20218;-68
2021/08/04 10:34:25;;;;;;;1.38;0.60;;;;;;;29.18;26.56;100935.28;5029356;28;20195;-67
2021/08/04 10:36:57;;;;;;;0.47;0.47;;;;;;;29.63;26.08;100938.84;5028350;28;20202;-67
2021/08/04 10:39:27;;;;;;;0.57;0.57;;;;;;;30.01;26.28;100935.16;5024113;28;20296;-67
2021/08/04 10:42:05;;;;;;;0.52;0.52;;;;;;;29.95;25.63;100939.66;5026912;28;20589;-68
2021/08/04 10:44:33;;;;;;;0.57;0.50;;;;;;;29.97;24.98;100912.56;5024906;28;20765;-67
2021/08/04 10:47:04;;;;;;;0.70;0.70;;;;;;;30.16;25.21;100933.75;5026709;28;20207;-67
2021/08/04 10:49:35;;;;;;;0.60;0.60;;;;;;;30.53;27.05;100928.22;5027124;28;20230;-67
2021/08/04 10:52:15;;;;;;;0.57;0.57;;;;;;;30.82;25.46;100935.81;5025694;28;20226;-67
2021/08/04 10:55:03;;;;;;;0.57;0.57;;;;;;;29.78;25.29;100931.06;5024460;28;20337;-68
2021/08/04 10:57:34;;;;;;;0.80;0.80;;;;;;;29.44;26.02;100934.28;5039206;28;20221;-67
2021/08/04 11:00:21;;;;;;;0.80;0.80;;;;;;;29.81;26.01;100924.25;5023392;28;20675;-68
2021/08/04 11:02:49;;;;;;;0.60;0.60;;;;;;;29.81;24.84;100925.09;5024642;28;20214;-67
2021/08/04 11:05:19;;;;;;;0.63;0.63;;;;;;;29.70;24.83;100934.13;5026629;28;20199;-67
2021/08/04 11:08:16;;;;;;;0.50;0.50;;;;;;;30.44;27.46;100927.69;5026779;28;20694;-67
2021/08/04 11:10:45;;;;;;;0.65;0.65;;;;;;;30.47;25.09;100923.63;5028161;28;20222;-68
2021/08/04 11:13:49;;;;;;;0.60;0.60;;;;;;;30.22;26.67;100927.28;5025678;28;20223;-67
2021/08/04 11:16:32;;;;;;;0.60;0.60;;;;;;;30.98;27.20;100927.94;5025269;28;20206;-67
2021/08/04 11:19:06;;;;;;;0.65;0.65;;;;;;;30.81;27.67;100922.16;5026889;28;20715;-68
2021/08/04 11:21:37;;;;;;;0.70;0.70;;;;;;;31.23;28.11;100934.25;5025421;28;20199;-67
2021/08/04 11:24:07;;;;;;;1.15;0.50;;;;;;;31.69;28.73;100929.91;5026093;28;20199;-67
2021/08/04 11:26:37;;;;;;;0.60;0.60;;;;;;;31.32;26.85;100931.97;5030895;28;20195;-68
2021/08/04 11:29:07;;;;;;;0.55;0.55;;;;;;;31.15;25.70;100920.63;5047083;28;20234;-68
2021/08/04 11:31:35;;;;;;;0.65;0.65;;;;;;;30.79;26.91;100927.09;5027476;28;20202;-69
2021/08/04 11:34:27;;;;;;;0.60;0.60;;;;;;;30.70;24.51;100925.72;5027121;28;20206;-68
2021/08/04 11:37:00;;;;;;;0.50;0.50;;;;;;;30.49;24.77;100927.84;5028607;28;20206;-68
2021/08/04 11:39:29;;;;;;;0.80;0.80;;;;;;;30.88;26.92;100932.09;5028823;28;20202;-67